Vestaburg, Michigan
Current Conditions -  °F | °C
As of 6:52 PM on Monday 20 Oct 2014 (Local Time) from KAMN Reporting Station
Overcast Overcast  
Wind Chill: 53°   Ceiling: 3000
Heat Index: 53°   Visibility: 10mi
Dew Point: 46°   Wind: 10mph
Humidity: 76%   Direction: 340°NNW
Pressure: 29.85"   Gusts: 18mph
Location:  43.4°N, 84.91°W
Report Text: KAMN 202252Z AUTO 34009G16KT 10SM BKN030 BKN034 OVC060 12/08 A2985 RMK AO2 T01190077
Loading
Personal Weather Stations






























Interactive Weather Map
Tropical Storm Tracking
New forecast layout! Learn more

10-Day Weather Forecast

Advertisements
Track Severe Weather on mobile